createdAt,value
2023-01-05T01:19:36.752Z,18.10
2023-01-05T01:22:07.324Z,18.10
2023-01-05T01:24:37.283Z,18.20
2023-01-05T01:27:07.003Z,18.10
2023-01-05T01:29:36.800Z,18.10
2023-01-05T01:32:06.467Z,18.10
2023-01-05T01:34:36.410Z,18.00
2023-01-05T01:37:06.217Z,18.00
2023-01-05T01:39:36.195Z,18.00
2023-01-05T01:42:06.001Z,18.10
2023-01-05T01:44:53.910Z,18.00
2023-01-05T01:47:41.648Z,18.10
2023-01-05T01:50:15.451Z,18.20
2023-01-05T01:52:46.346Z,18.10
2023-01-05T01:55:16.350Z,18.10
2023-01-05T01:57:46.113Z,18.10
2023-01-05T02:00:16.916Z,18.30
2023-01-05T02:02:48.135Z,18.40
2023-01-05T02:05:18.860Z,18.40
2023-01-05T02:07:49.153Z,18.50
2023-01-05T02:10:20.242Z,18.60
2023-01-05T02:13:07.987Z,18.40
2023-01-05T02:15:46.386Z,18.40
2023-01-05T02:18:38.230Z,18.10
2023-01-05T02:21:21.094Z,17.80
2023-01-05T02:24:09.309Z,17.50
2023-01-05T02:26:47.781Z,17.30
2023-01-05T02:29:35.561Z,17.30
2023-01-05T02:32:14.668Z,17.30
2023-01-05T02:34:43.997Z,17.30
2023-01-05T02:37:13.289Z,17.30
2023-01-05T02:39:59.597Z,17.40
2023-01-05T02:42:30.929Z,17.30
2023-01-05T02:45:03.664Z,17.50
2023-01-05T02:47:45.923Z,17.70
2023-01-05T02:50:15.506Z,17.60
2023-01-05T02:53:11.154Z,17.80
2023-01-05T02:55:43.369Z,18.00
2023-01-05T02:58:15.952Z,18.30
2023-01-05T03:00:47.652Z,18.40
2023-01-05T03:03:20.424Z,18.40
2023-01-05T03:05:58.030Z,18.40
2023-01-05T03:08:32.638Z,18.50
2023-01-05T03:11:24.904Z,18.50
2023-01-05T03:13:58.142Z,18.50
2023-01-05T03:16:30.439Z,18.50
2023-01-05T03:19:19.583Z,18.50
2023-01-05T03:22:08.172Z,18.60
2023-01-05T03:24:56.967Z,18.60
2023-01-05T03:27:44.456Z,18.70
2023-01-05T03:30:33.823Z,18.80
2023-01-05T03:33:34.978Z,19.00
2023-01-05T03:36:06.864Z,18.90
2023-01-05T03:38:45.257Z,18.80
2023-01-05T03:41:16.149Z,18.60
2023-01-05T03:43:45.701Z,18.40
2023-01-05T03:46:21.110Z,18.40
2023-01-05T03:48:50.869Z,18.50
2023-01-05T03:51:20.306Z,18.50
2023-01-05T03:53:49.799Z,18.40
2023-01-05T03:56:19.150Z,18.30
2023-01-05T03:58:49.502Z,18.20
2023-01-05T04:01:18.934Z,18.20
2023-01-05T04:03:48.907Z,18.30
2023-01-05T04:06:19.541Z,18.30
2023-01-05T04:08:48.935Z,18.30
2023-01-05T04:11:22.687Z,18.30
2023-01-05T04:13:52.287Z,18.30
2023-01-05T04:16:22.130Z,18.20
2023-01-05T04:18:51.595Z,18.10
2023-01-05T04:21:22.106Z,18.10
2023-01-05T04:23:51.534Z,18.10
2023-01-05T04:26:21.078Z,18.10
2023-01-05T04:28:51.058Z,18.10
2023-01-05T04:31:20.621Z,18.10
2023-01-05T04:33:50.024Z,18.10
2023-01-05T04:36:19.448Z,18.20
2023-01-05T04:38:49.162Z,18.10
2023-01-05T04:41:18.572Z,18.00
2023-01-05T04:43:48.035Z,18.00
2023-01-05T04:46:17.615Z,18.10
2023-01-05T04:48:47.042Z,18.20
2023-01-05T04:51:16.487Z,18.10
2023-01-05T04:53:45.901Z,18.10
2023-01-05T04:56:15.318Z,17.90
2023-01-05T04:58:44.998Z,18.00
2023-01-05T05:01:14.657Z,18.10
2023-01-05T05:03:44.161Z,18.10
2023-01-05T05:06:13.630Z,18.00
2023-01-05T05:08:43.085Z,17.90
2023-01-05T05:11:12.479Z,17.90
2023-01-05T05:13:41.869Z,17.90
2023-01-05T05:16:11.535Z,17.90
2023-01-05T05:18:40.933Z,18.00
2023-01-05T05:21:10.619Z,18.10
2023-01-05T05:23:40.066Z,18.20
2023-01-05T05:26:09.890Z,18.30
2023-01-05T05:28:39.330Z,18.30
2023-01-05T05:31:09.324Z,18.20
2023-01-05T05:33:39.774Z,18.20
2023-01-05T05:36:09.593Z,18.20
2023-01-05T05:38:38.997Z,18.20
2023-01-05T05:41:08.534Z,18.20
2023-01-05T05:43:38.094Z,18.10
2023-01-05T05:46:07.682Z,18.10
2023-01-05T05:48:37.516Z,18.00
2023-01-05T05:51:06.976Z,18.20
2023-01-05T05:53:36.402Z,18.20
2023-01-05T05:56:05.870Z,18.20
2023-01-05T05:58:35.478Z,18.20
2023-01-05T06:01:04.970Z,18.30
2023-01-05T06:03:35.221Z,18.30
2023-01-05T06:06:04.983Z,18.30
2023-01-05T06:08:34.316Z,18.30
2023-01-05T06:11:03.778Z,18.50
2023-01-05T06:13:33.224Z,18.70
2023-01-05T06:16:02.674Z,19.00
2023-01-05T06:18:32.259Z,19.10
2023-01-05T06:21:02.057Z,19.20
2023-01-05T06:23:31.623Z,18.90
2023-01-05T06:26:01.040Z,18.70
2023-01-05T06:28:30.465Z,18.50
2023-01-05T06:30:59.894Z,18.20
2023-01-05T06:33:29.327Z,18.00
2023-01-05T06:36:00.632Z,17.90
2023-01-05T06:38:30.998Z,17.80
2023-01-05T06:41:01.068Z,17.80
2023-01-05T06:43:30.499Z,17.80
2023-01-05T06:46:00.849Z,17.60
2023-01-05T06:48:30.373Z,17.40
2023-01-05T06:50:59.737Z,17.30
2023-01-05T06:53:29.565Z,17.30
2023-01-05T06:55:58.949Z,17.30
2023-01-05T06:58:28.737Z,17.20
2023-01-05T07:00:58.583Z,16.90
2023-01-05T07:03:28.393Z,17.00
2023-01-05T07:05:57.812Z,16.90
2023-01-05T07:08:27.503Z,17.00
2023-01-05T07:10:56.897Z,16.90
2023-01-05T07:13:26.361Z,16.80
2023-01-05T07:15:55.888Z,16.80
2023-01-05T07:18:25.756Z,16.80
2023-01-05T07:20:55.747Z,16.80
2023-01-05T07:23:26.314Z,16.70
2023-01-05T07:25:55.647Z,16.50
2023-01-05T07:28:26.547Z,16.40
2023-01-05T07:30:55.938Z,16.40
2023-01-05T07:33:25.415Z,16.40
2023-01-05T07:35:54.803Z,16.30
2023-01-05T07:38:24.148Z,16.30
2023-01-05T07:40:53.770Z,16.30
2023-01-05T07:43:24.403Z,16.30
2023-01-05T07:45:53.848Z,16.30
2023-01-05T07:48:23.704Z,16.20
2023-01-05T07:50:56.789Z,16.30
2023-01-05T07:53:26.327Z,16.30
2023-01-05T07:55:59.841Z,16.30
2023-01-05T07:58:30.459Z,16.30
2023-01-05T08:01:01.703Z,16.40
2023-01-05T08:03:32.208Z,16.40
2023-01-05T08:06:06.954Z,16.50
2023-01-05T08:08:36.808Z,16.40
2023-01-05T08:11:07.384Z,16.50
2023-01-05T08:13:55.774Z,16.50
2023-01-05T08:16:25.514Z,16.60
2023-01-05T08:18:55.236Z,16.60
2023-01-05T08:21:25.764Z,16.60
2023-01-05T08:23:55.506Z,16.50
2023-01-05T08:26:28.622Z,16.50
2023-01-05T08:28:58.757Z,16.50
2023-01-05T08:31:29.377Z,16.40
2023-01-05T08:34:06.015Z,16.40
2023-01-05T08:36:35.794Z,16.30
2023-01-05T08:39:05.486Z,16.20
2023-01-05T08:41:37.388Z,16.10
2023-01-05T08:44:10.460Z,16.20
2023-01-05T08:46:40.114Z,16.20
2023-01-05T08:49:12.177Z,16.10
2023-01-05T08:51:43.642Z,16.10
2023-01-05T08:54:14.404Z,16.00
2023-01-05T08:56:45.789Z,16.00
2023-01-05T08:59:15.954Z,15.90
2023-01-05T09:01:46.189Z,15.90
2023-01-05T09:04:17.599Z,15.90
2023-01-05T09:06:47.707Z,15.90
2023-01-05T09:09:17.597Z,15.80
2023-01-05T09:11:47.357Z,15.80
2023-01-05T09:14:17.385Z,15.60
2023-01-05T09:17:06.568Z,15.50
2023-01-05T09:19:36.291Z,15.60
2023-01-05T09:22:06.200Z,15.60
2023-01-05T09:24:35.621Z,15.60
2023-01-05T09:27:08.371Z,15.50
2023-01-05T09:29:37.817Z,15.50
2023-01-05T09:32:08.081Z,15.50
2023-01-05T09:34:37.980Z,15.50
2023-01-05T09:37:07.832Z,15.40
2023-01-05T09:39:39.565Z,15.40
2023-01-05T09:42:15.889Z,15.40
2023-01-05T09:44:49.645Z,15.30
2023-01-05T09:47:39.964Z,15.40
2023-01-05T09:50:11.599Z,15.40
2023-01-05T09:52:41.216Z,15.40
2023-01-05T09:55:20.752Z,15.40
2023-01-05T09:57:58.562Z,15.40
2023-01-05T10:00:29.089Z,15.30
2023-01-05T10:03:03.412Z,15.30
2023-01-05T10:05:37.092Z,15.30
2023-01-05T10:08:07.094Z,15.30
2023-01-05T10:11:13.176Z,15.30
2023-01-05T10:13:47.137Z,15.30
2023-01-05T10:16:18.961Z,15.30
2023-01-05T10:18:49.684Z,15.30
2023-01-05T10:21:32.724Z,15.30
2023-01-05T10:24:06.663Z,15.30
2023-01-05T10:29:51.765Z,15.30
2023-01-05T10:32:29.952Z,15.30
2023-01-05T10:35:59.027Z,15.30
2023-01-05T10:38:13.707Z,15.30
2023-01-05T10:40:58.351Z,15.30
2023-01-05T10:43:37.914Z,15.30
2023-01-05T10:49:01.666Z,15.30
2023-01-05T10:51:35.879Z,15.30
2023-01-05T10:54:05.760Z,15.30
2023-01-05T10:56:36.276Z,15.30
2023-01-05T10:59:11.843Z,15.30
2023-01-05T11:01:45.509Z,15.20
2023-01-05T11:04:33.958Z,15.30
2023-01-05T11:07:06.524Z,15.30
2023-01-05T11:09:41.313Z,15.30
2023-01-05T11:12:20.364Z,15.30
2023-01-05T11:14:58.377Z,15.20
2023-01-05T11:17:30.549Z,15.20
2023-01-05T11:20:00.530Z,15.10
2023-01-05T11:22:37.902Z,15.10
2023-01-05T11:25:27.657Z,15.10
2023-01-05T11:28:26.651Z,15.10
2023-01-05T11:31:06.063Z,15.00
2023-01-05T11:33:37.850Z,15.00
2023-01-05T11:36:08.365Z,15.00
2023-01-05T11:38:37.905Z,14.90
2023-01-05T11:41:13.050Z,14.90
2023-01-05T11:43:42.510Z,14.90
2023-01-05T11:46:12.097Z,14.80
2023-01-05T11:48:41.604Z,14.70
2023-01-05T11:51:11.213Z,14.70
2023-01-05T11:53:41.231Z,14.70
2023-01-05T11:56:10.988Z,14.70
2023-01-05T12:35:08.480Z,14.00
2023-01-05T12:37:56.039Z,13.90
2023-01-05T12:40:43.832Z,13.90
2023-01-05T12:43:21.669Z,13.80
2023-01-05T12:45:58.680Z,13.70
2023-01-05T12:48:31.016Z,13.70
2023-01-05T12:51:15.826Z,13.60
2023-01-05T12:54:08.362Z,13.60
2023-01-05T12:56:44.111Z,13.60
2023-01-05T12:59:29.948Z,13.60
2023-01-05T13:01:59.563Z,13.60
2023-01-05T13:04:52.854Z,13.60
2023-01-05T13:07:27.572Z,13.50
2023-01-05T13:10:03.622Z,13.50
2023-01-05T13:12:34.452Z,13.60
2023-01-05T13:15:07.127Z,13.50
2023-01-05T13:17:38.817Z,13.50
2023-01-05T13:20:08.853Z,13.50
2023-01-05T13:22:41.114Z,13.40
2023-01-05T13:25:21.009Z,13.40
2023-01-05T13:27:50.433Z,13.30
2023-01-05T13:30:39.843Z,13.30
2023-01-05T13:33:26.483Z,13.30
2023-01-05T13:36:21.923Z,13.30
2023-01-05T13:39:00.407Z,13.30
2023-01-05T13:41:43.057Z,13.30
2023-01-05T13:44:30.335Z,13.30
2023-01-05T13:47:08.431Z,13.30
2023-01-05T13:49:46.477Z,13.30
2023-01-05T13:52:25.483Z,13.30
2023-01-05T13:55:01.778Z,13.10
2023-01-05T13:57:37.436Z,13.20
2023-01-05T14:00:12.540Z,13.10
2023-01-05T14:02:46.824Z,13.10
2023-01-05T14:05:27.699Z,13.10
2023-01-05T14:07:57.663Z,13.10
2023-01-05T14:10:32.249Z,13.00
2023-01-05T14:13:02.385Z,12.90
2023-01-05T14:15:31.895Z,13.00
2023-01-05T14:18:04.250Z,13.00
2023-01-05T14:20:34.177Z,12.90
2023-01-05T14:23:04.713Z,12.90
2023-01-05T14:25:40.263Z,12.80
2023-01-05T14:28:21.747Z,12.80
2023-01-05T14:30:52.449Z,12.80
2023-01-05T14:33:22.666Z,12.80
2023-01-05T14:35:52.053Z,12.80
2023-01-05T14:38:27.220Z,12.80
2023-01-05T14:40:59.678Z,12.80
2023-01-05T14:43:32.155Z,12.80
2023-01-05T14:46:09.518Z,12.70
2023-01-05T14:48:41.811Z,12.70
2023-01-05T14:51:31.697Z,12.70
2023-01-05T14:54:04.909Z,12.70
2023-01-05T14:56:35.407Z,12.80
2023-01-05T14:59:21.754Z,12.80
2023-01-05T15:01:59.271Z,12.80
2023-01-05T15:04:31.494Z,12.80
2023-01-05T15:45:51.883Z,12.60
2023-01-05T15:48:33.585Z,12.60
2023-01-05T15:51:03.837Z,12.60
2023-01-05T15:53:34.879Z,12.60
2023-01-05T15:56:04.998Z,12.60
2023-01-05T15:58:35.721Z,12.60
2023-01-05T16:01:16.791Z,12.60
2023-01-05T16:03:47.286Z,12.60
2023-01-05T16:06:22.020Z,12.50
2023-01-05T16:08:56.353Z,12.50
2023-01-05T16:11:30.687Z,12.60
2023-01-05T16:14:02.796Z,12.60
2023-01-05T16:19:36.846Z,12.60
2023-01-05T16:22:09.160Z,12.70
2023-01-05T16:25:01.525Z,12.60
2023-01-05T16:27:31.209Z,12.70
2023-01-05T16:30:15.441Z,12.60
2023-01-05T16:32:45.370Z,12.70
2023-01-05T16:35:23.903Z,12.70
2023-01-05T16:38:19.263Z,12.70
2023-01-05T16:40:48.711Z,12.60
2023-01-05T16:43:24.316Z,12.60
2023-01-05T16:51:50.227Z,12.60
2023-01-05T16:54:25.576Z,12.60
2023-01-05T16:56:58.560Z,12.60
2023-01-05T16:59:45.168Z,12.60
2023-01-05T17:02:33.125Z,12.60
2023-01-05T17:05:02.635Z,12.60
2023-01-05T17:07:32.046Z,12.60
2023-01-05T17:10:02.156Z,12.50
2023-01-05T17:12:31.595Z,12.60
2023-01-05T17:15:03.314Z,12.50
2023-01-05T17:17:33.714Z,12.60
2023-01-05T17:20:03.274Z,12.60
2023-01-05T17:22:32.736Z,12.60
2023-01-05T17:25:02.233Z,12.70
2023-01-05T17:27:32.073Z,12.70
2023-01-05T17:30:01.523Z,12.70
2023-01-05T17:32:30.908Z,12.60
2023-01-05T17:35:00.298Z,12.70
2023-01-05T17:37:29.671Z,12.70
2023-01-05T17:39:59.049Z,12.80
2023-01-05T17:42:48.709Z,12.70
2023-01-05T17:45:22.557Z,12.70
2023-01-05T17:47:52.807Z,12.80
2023-01-05T17:50:23.610Z,12.70
